createdAt,value
2022-10-17T00:00:41.232Z,22.77
2022-10-17T00:03:08.095Z,21.88
2022-10-17T00:05:34.820Z,21.60
2022-10-17T00:08:01.680Z,22.67
2022-10-17T00:10:29.661Z,22.73
2022-10-17T00:12:56.817Z,21.63
2022-10-17T00:15:23.847Z,22.52
2022-10-17T00:17:50.566Z,23.10
2022-10-17T00:20:17.850Z,22.10
2022-10-17T00:22:44.669Z,23.15
2022-10-17T00:25:12.186Z,25.05
2022-10-17T00:27:40.535Z,22.70
2022-10-17T00:30:12.247Z,23.77
2022-10-17T00:32:39.132Z,23.40
2022-10-17T00:35:06.906Z,23.55
2022-10-17T00:37:33.981Z,23.73
2022-10-17T00:40:01.241Z,24.02
2022-10-17T00:42:28.454Z,22.58
2022-10-17T00:45:05.801Z,24.88
2022-10-17T00:47:32.771Z,23.25
2022-10-17T00:49:59.904Z,25.08
2022-10-17T00:52:29.896Z,22.98
2022-10-17T00:55:21.644Z,23.48
2022-10-17T00:57:49.371Z,23.85
2022-10-17T01:00:18.359Z,24.35
2022-10-17T01:02:45.420Z,23.20
2022-10-17T01:05:12.740Z,22.23
2022-10-17T01:07:40.730Z,22.33
2022-10-17T01:10:07.970Z,22.17
2022-10-17T01:12:56.255Z,22.83
2022-10-17T01:15:47.517Z,22.38
2022-10-17T01:18:36.288Z,23.13
2022-10-17T01:21:26.383Z,22.33
2022-10-17T01:24:20.887Z,21.77
2022-10-17T01:27:32.882Z,20.77
2022-10-17T01:30:14.588Z,22.25
2022-10-17T01:32:52.381Z,21.00
2022-10-17T01:35:38.593Z,22.15
2022-10-17T01:38:12.805Z,22.50
2022-10-17T01:40:51.329Z,20.88
2022-10-17T01:43:25.309Z,21.60
2022-10-17T01:45:57.235Z,22.73
2022-10-17T01:48:25.882Z,20.95
2022-10-17T01:51:01.757Z,20.63
2022-10-17T01:53:31.977Z,21.67
2022-10-17T01:56:00.846Z,21.67
2022-10-17T01:58:40.491Z,20.85
2022-10-17T02:01:08.732Z,21.02
2022-10-17T02:03:35.974Z,20.73
2022-10-17T02:06:06.131Z,20.75
2022-10-17T02:08:48.561Z,18.90
2022-10-17T02:11:23.935Z,17.30
2022-10-17T02:14:09.259Z,18.77
2022-10-17T02:16:43.890Z,17.90
2022-10-17T02:19:22.712Z,17.13
2022-10-17T02:22:08.074Z,18.42
2022-10-17T02:24:49.906Z,17.38
2022-10-17T02:27:33.310Z,16.92
2022-10-17T02:30:13.196Z,17.15
2022-10-17T02:36:56.668Z,17.10
2022-10-17T02:39:24.017Z,17.48
2022-10-17T02:41:52.425Z,16.13
2022-10-17T02:44:23.028Z,16.45
2022-10-17T02:46:56.731Z,16.00
2022-10-17T02:49:30.532Z,15.02
2022-10-17T02:52:10.611Z,15.38
2022-10-17T02:55:01.002Z,15.35
2022-10-17T02:59:58.546Z,14.40
2022-10-17T03:02:25.401Z,15.02
2022-10-17T03:04:52.653Z,15.05
2022-10-17T03:07:19.522Z,14.63
2022-10-17T03:09:46.268Z,13.98
2022-10-17T03:12:12.920Z,14.40
2022-10-17T03:14:39.691Z,13.68
2022-10-17T03:17:06.768Z,13.40
2022-10-17T03:19:33.438Z,13.43
2022-10-17T03:22:00.213Z,13.15
2022-10-17T03:24:27.186Z,12.35
2022-10-17T03:26:53.925Z,12.07
2022-10-17T03:29:20.747Z,12.77
2022-10-17T03:31:47.891Z,12.00
2022-10-17T03:34:17.662Z,12.80
2022-10-17T03:36:45.432Z,11.38
2022-10-17T03:39:12.574Z,11.32
2022-10-17T03:41:39.403Z,11.32
2022-10-17T03:44:06.208Z,11.48
2022-10-17T03:46:33.606Z,11.25
2022-10-17T03:49:01.371Z,11.35
2022-10-17T03:51:28.432Z,10.60
2022-10-17T03:54:02.080Z,10.50
2022-10-17T03:56:28.987Z,10.90
2022-10-17T03:59:13.675Z,10.52
2022-10-17T04:01:42.442Z,10.48
2022-10-17T04:04:10.193Z,10.02
2022-10-17T04:06:37.582Z,10.30
2022-10-17T04:09:05.767Z,10.13
2022-10-17T04:11:48.879Z,9.52
2022-10-17T04:14:16.315Z,10.07
2022-10-17T04:16:43.279Z,9.73
2022-10-17T04:19:15.207Z,9.15
2022-10-17T04:21:45.814Z,9.73
2022-10-17T04:24:13.869Z,9.43
2022-10-17T04:26:49.650Z,9.55
2022-10-17T04:29:16.438Z,9.73
2022-10-17T04:31:48.009Z,9.98
2022-10-17T04:34:21.928Z,9.00
2022-10-17T04:36:48.977Z,9.48
2022-10-17T04:39:16.799Z,9.55
2022-10-17T04:41:44.979Z,9.23
2022-10-17T04:44:12.173Z,8.45
2022-10-17T04:46:43.137Z,8.73
2022-10-17T04:49:09.965Z,8.55
2022-10-17T04:51:38.627Z,7.97
2022-10-17T04:54:21.203Z,8.38
2022-10-17T04:56:53.650Z,8.80
2022-10-17T04:59:20.404Z,9.38
2022-10-17T05:01:52.917Z,8.43
2022-10-17T05:04:22.421Z,8.38
2022-10-17T05:06:52.211Z,8.32
2022-10-17T05:09:40.173Z,8.68
2022-10-17T05:12:09.579Z,8.32
2022-10-17T05:14:39.741Z,8.00
2022-10-17T05:17:06.457Z,8.15
2022-10-17T05:19:33.349Z,8.05
2022-10-17T05:22:00.283Z,8.00
2022-10-17T05:24:27.081Z,7.93
2022-10-17T05:26:53.878Z,8.52
2022-10-17T05:29:20.779Z,7.68
2022-10-17T05:31:52.927Z,7.82
2022-10-17T05:34:20.223Z,8.15
2022-10-17T05:36:47.266Z,7.45
2022-10-17T05:39:19.706Z,7.40
2022-10-17T05:41:48.263Z,7.75
2022-10-17T05:44:15.329Z,7.47
2022-10-17T05:46:49.462Z,8.23
2022-10-17T05:49:32.203Z,8.25
2022-10-17T05:52:04.358Z,8.55
2022-10-17T05:54:36.774Z,9.70
2022-10-17T05:57:04.366Z,8.63
2022-10-17T05:59:32.798Z,8.50
2022-10-17T06:02:10.189Z,8.60
2022-10-17T06:04:37.984Z,8.65
2022-10-17T06:07:05.131Z,8.35
2022-10-17T06:09:33.262Z,8.50
2022-10-17T06:12:01.576Z,9.00
2022-10-17T06:14:29.516Z,9.30
2022-10-17T06:17:01.168Z,9.35
2022-10-17T06:19:28.145Z,8.35
2022-10-17T06:21:55.477Z,9.10
2022-10-17T06:24:24.826Z,8.60
2022-10-17T06:26:53.020Z,7.93
2022-10-17T06:29:21.209Z,9.18
2022-10-17T06:31:51.017Z,9.25
2022-10-17T06:34:19.001Z,8.73
2022-10-17T06:36:46.574Z,8.02
2022-10-17T06:39:13.456Z,8.15
2022-10-17T06:41:45.658Z,7.78
2022-10-17T06:44:17.967Z,7.55
2022-10-17T06:47:03.495Z,7.85
2022-10-17T06:49:34.211Z,8.13
2022-10-17T06:52:24.770Z,7.45
2022-10-17T06:55:16.933Z,7.50
2022-10-17T06:57:56.693Z,7.97
2022-10-17T07:00:42.340Z,7.03
2022-10-17T07:03:11.956Z,7.13
2022-10-17T07:05:38.721Z,7.60
2022-10-17T07:08:05.901Z,7.32
2022-10-17T07:10:38.231Z,6.80
2022-10-17T07:13:06.914Z,7.00
2022-10-17T07:15:35.385Z,6.60
2022-10-17T07:18:02.135Z,5.90
2022-10-17T07:20:29.826Z,5.70
2022-10-17T07:22:56.562Z,6.25
2022-10-17T07:25:24.178Z,5.60
2022-10-17T07:27:56.030Z,5.95
2022-10-17T07:30:23.132Z,5.55
2022-10-17T07:32:58.416Z,5.95
2022-10-17T07:35:25.150Z,5.75
2022-10-17T07:37:52.257Z,5.55
2022-10-17T07:40:20.516Z,5.97
2022-10-17T07:42:47.808Z,5.70
2022-10-17T07:45:15.808Z,6.53
2022-10-17T07:47:45.959Z,5.80
2022-10-17T07:50:15.602Z,6.40
2022-10-17T07:52:43.333Z,5.53
2022-10-17T07:55:10.139Z,5.15
2022-10-17T07:57:36.967Z,5.20
2022-10-17T08:00:04.114Z,5.40
2022-10-17T08:02:39.539Z,5.45
2022-10-17T08:05:06.664Z,4.82
2022-10-17T08:07:39.052Z,5.00
2022-10-17T08:12:40.093Z,5.00
2022-10-17T08:15:08.178Z,5.13
2022-10-17T08:17:35.522Z,5.80
2022-10-17T08:20:02.997Z,4.95
2022-10-17T08:22:29.978Z,5.10
2022-10-17T08:24:57.244Z,5.05
2022-10-17T08:27:25.169Z,5.13
2022-10-17T08:29:54.687Z,5.00
2022-10-17T08:32:25.775Z,5.22
2022-10-17T08:34:56.503Z,5.55
2022-10-17T08:37:23.722Z,5.07
2022-10-17T08:39:50.466Z,6.43
2022-10-17T08:42:29.259Z,4.72
2022-10-17T08:45:08.056Z,5.05
2022-10-17T08:47:50.126Z,5.30
2022-10-17T08:50:40.864Z,4.75
2022-10-17T08:53:12.110Z,4.63
2022-10-17T08:58:20.282Z,4.63
2022-10-17T09:01:13.619Z,4.70
2022-10-17T09:03:43.544Z,5.20
2022-10-17T09:06:16.130Z,4.63
2022-10-17T09:09:00.239Z,4.55
2022-10-17T09:11:52.107Z,4.93
2022-10-17T09:14:43.520Z,4.80
2022-10-17T09:17:34.610Z,5.00
2022-10-17T09:20:06.508Z,4.50
2022-10-17T09:22:39.302Z,5.03
2022-10-17T09:25:11.297Z,4.60
2022-10-17T09:27:45.617Z,4.78
2022-10-17T09:30:44.834Z,4.45
2022-10-17T09:33:23.410Z,4.10
2022-10-17T09:36:04.061Z,5.00
2022-10-17T09:38:38.359Z,4.97
2022-10-17T09:41:25.609Z,5.15
2022-10-17T09:43:57.181Z,4.65
2022-10-17T09:46:33.066Z,4.43
2022-10-17T09:49:36.354Z,4.65
2022-10-17T09:52:05.481Z,4.38
2022-10-17T09:54:48.590Z,5.38
2022-10-17T09:57:17.085Z,5.65
2022-10-17T10:00:05.847Z,5.00
2022-10-17T10:02:40.950Z,4.32
2022-10-17T10:05:19.103Z,4.30
2022-10-17T10:08:10.966Z,4.63
2022-10-17T10:10:38.203Z,3.97
2022-10-17T10:13:20.289Z,4.57
2022-10-17T10:15:50.691Z,4.72
2022-10-17T10:18:28.181Z,4.70
2022-10-17T10:21:14.720Z,4.82
2022-10-17T10:23:43.459Z,4.78
2022-10-17T10:26:22.342Z,4.55
2022-10-17T10:28:55.133Z,4.60
2022-10-17T10:31:31.923Z,4.00
2022-10-17T10:34:00.759Z,4.85
2022-10-17T10:36:45.913Z,4.47
2022-10-17T10:39:31.896Z,4.63
2022-10-17T10:42:00.103Z,4.55
2022-10-17T10:44:29.353Z,4.82
2022-10-17T10:47:16.808Z,4.78
2022-10-17T10:49:44.304Z,4.72
2022-10-17T10:52:27.568Z,4.80
2022-10-17T10:54:59.691Z,4.90
2022-10-17T10:57:29.697Z,5.03
2022-10-17T11:00:18.484Z,4.68
2022-10-17T11:03:01.899Z,5.72
2022-10-17T11:05:40.105Z,5.00
2022-10-17T11:08:23.531Z,5.00
2022-10-17T11:11:00.988Z,5.57
2022-10-17T11:13:32.975Z,6.00
2022-10-17T11:16:19.560Z,5.72
2022-10-17T11:18:59.043Z,5.65
2022-10-17T11:21:37.347Z,5.68
2022-10-17T11:24:28.145Z,6.90
2022-10-17T11:27:01.605Z,6.33
2022-10-17T11:29:34.703Z,5.80
2022-10-17T11:32:07.178Z,5.65
2022-10-17T11:34:39.891Z,6.20
2022-10-17T11:37:15.414Z,6.43
2022-10-17T11:39:49.788Z,6.57
2022-10-17T11:42:54.827Z,5.88
2022-10-17T11:45:22.810Z,5.70
2022-10-17T11:47:58.911Z,6.05
2022-10-17T11:53:28.940Z,6.43
2022-10-17T11:55:58.770Z,5.85
2022-10-17T11:58:40.343Z,5.80
2022-10-17T12:01:18.462Z,6.18
2022-10-17T12:04:03.882Z,5.97
2022-10-17T12:06:52.204Z,5.95
2022-10-17T12:09:29.634Z,5.78
2022-10-17T12:11:59.151Z,5.57
2022-10-17T12:14:41.182Z,6.05
2022-10-17T12:17:32.609Z,5.30
2022-10-17T12:20:24.633Z,5.60
2022-10-17T12:22:52.242Z,6.47
2022-10-17T12:25:30.631Z,5.82
2022-10-17T12:28:07.529Z,6.20
2022-10-17T12:30:34.708Z,6.25
2022-10-17T12:33:22.576Z,5.63
2022-10-17T12:35:51.240Z,6.25
2022-10-17T12:38:18.021Z,6.25
2022-10-17T12:40:49.070Z,6.43
2022-10-17T12:43:17.264Z,6.80
2022-10-17T12:45:57.385Z,6.03
2022-10-17T12:48:39.515Z,6.10
2022-10-17T12:51:35.245Z,6.30
2022-10-17T12:54:15.205Z,6.13
2022-10-17T12:56:47.352Z,6.20
2022-10-17T12:59:21.093Z,5.35
2022-10-17T13:01:52.163Z,5.70
2022-10-17T13:04:19.590Z,5.82
2022-10-17T13:06:53.981Z,6.05
2022-10-17T13:09:46.783Z,5.45
2022-10-17T13:12:24.118Z,6.32
2022-10-17T13:14:53.115Z,5.30
2022-10-17T13:17:22.704Z,5.35
2022-10-17T13:19:49.501Z,5.95
2022-10-17T13:22:30.450Z,5.15
2022-10-17T13:25:15.607Z,5.68
2022-10-17T13:27:42.819Z,4.75
2022-10-17T13:30:32.441Z,4.40
2022-10-17T13:33:00.522Z,4.18
2022-10-17T13:35:59.990Z,4.43
2022-10-17T13:38:24.245Z,3.97
2022-10-17T13:41:01.392Z,4.40
2022-10-17T13:43:33.037Z,4.32
2022-10-17T13:46:25.438Z,4.28
2022-10-17T13:48:52.811Z,4.22
2022-10-17T13:51:19.804Z,4.22
2022-10-17T13:53:46.763Z,4.47
2022-10-17T13:56:27.828Z,4.53
2022-10-17T13:59:06.665Z,4.13
2022-10-17T14:01:37.501Z,4.00
2022-10-17T14:04:19.544Z,3.92
2022-10-17T14:06:49.714Z,4.50
2022-10-17T14:09:23.335Z,4.75
2022-10-17T14:12:02.842Z,4.10
2022-10-17T14:14:32.173Z,4.32
2022-10-17T14:17:04.154Z,4.00
2022-10-17T14:19:36.124Z,4.43
2022-10-17T14:22:22.449Z,3.70
2022-10-17T14:24:52.043Z,4.13
2022-10-17T14:27:26.140Z,5.25
2022-10-17T14:29:55.284Z,4.97
2022-10-17T14:32:23.441Z,4.25
2022-10-17T14:35:05.526Z,3.80
2022-10-17T14:37:57.981Z,3.97
2022-10-17T14:40:30.364Z,3.60
2022-10-17T14:43:05.382Z,4.20
2022-10-17T14:45:36.271Z,4.32
2022-10-17T14:48:15.106Z,4.40
2022-10-17T14:53:15.100Z,3.70
2022-10-17T14:55:59.176Z,6.57
2022-10-17T14:58:27.980Z,6.70
2022-10-17T15:00:58.366Z,6.40
2022-10-17T15:03:25.509Z,6.70
2022-10-17T15:05:54.571Z,6.30
2022-10-17T15:08:23.032Z,4.20
2022-10-17T15:10:50.870Z,8.23
2022-10-17T15:13:39.915Z,6.40
2022-10-17T15:16:28.043Z,5.20
2022-10-17T15:18:54.754Z,6.63
2022-10-17T15:21:38.424Z,7.68
2022-10-17T15:24:08.824Z,6.20
2022-10-17T15:26:35.758Z,6.07
2022-10-17T15:29:02.554Z,6.85
2022-10-17T15:31:31.311Z,7.07
2022-10-17T15:33:57.988Z,6.85
2022-10-17T15:36:40.018Z,6.70
2022-10-17T15:39:06.769Z,6.28
2022-10-17T15:41:33.789Z,6.65
2022-10-17T15:44:00.532Z,7.57
2022-10-17T15:46:29.274Z,7.53
2022-10-17T15:48:57.164Z,7.65
2022-10-17T15:51:24.064Z,7.35
2022-10-17T15:53:50.819Z,7.50
2022-10-17T15:56:26.681Z,7.75
2022-10-17T15:58:53.826Z,7.90
2022-10-17T16:01:24.036Z,8.40
2022-10-17T16:03:51.074Z,8.45
2022-10-17T16:06:19.202Z,8.65
2022-10-17T16:08:47.072Z,10.90
2022-10-17T16:11:29.297Z,9.23
2022-10-17T16:13:58.153Z,9.20
2022-10-17T16:16:25.874Z,9.00
2022-10-17T16:18:52.649Z,8.45
2022-10-17T16:21:20.861Z,8.45
2022-10-17T16:23:47.726Z,7.57
2022-10-17T16:26:15.997Z,7.95
2022-10-17T16:28:46.367Z,8.13
2022-10-17T16:31:22.056Z,9.00
2022-10-17T16:33:55.555Z,8.82
2022-10-17T16:36:28.852Z,6.55
2022-10-17T16:38:59.443Z,6.95
2022-10-17T16:41:29.078Z,6.03
2022-10-17T16:43:57.906Z,6.07
2022-10-17T16:46:26.128Z,6.70
2022-10-17T16:48:53.323Z,6.95
2022-10-17T16:51:21.296Z,6.57
2022-10-17T16:53:50.619Z,7.78
2022-10-17T16:56:19.179Z,8.57
2022-10-17T16:58:46.563Z,7.90
2022-10-17T17:01:18.721Z,6.97
2022-10-17T17:03:46.653Z,6.50
2022-10-17T17:06:20.689Z,6.60
2022-10-17T17:08:47.934Z,6.90
2022-10-17T17:11:16.235Z,6.65
2022-10-17T17:13:42.961Z,6.60
2022-10-17T17:16:12.302Z,7.07
2022-10-17T17:18:39.794Z,7.63
2022-10-17T17:21:10.398Z,6.93
2022-10-17T17:23:39.590Z,6.53
2022-10-17T17:26:15.369Z,6.97
2022-10-17T17:28:42.935Z,7.32
2022-10-17T17:31:17.881Z,6.90
2022-10-17T17:33:46.687Z,7.15
2022-10-17T17:36:18.425Z,6.68
2022-10-17T17:38:46.815Z,6.90
2022-10-17T17:41:15.223Z,6.57
2022-10-17T17:43:43.012Z,7.47
2022-10-17T17:46:10.218Z,9.10
2022-10-17T17:48:38.563Z,7.70
2022-10-17T17:51:09.564Z,7.70
2022-10-17T17:53:36.546Z,7.72
2022-10-17T17:56:06.116Z,7.63
2022-10-17T17:58:34.621Z,8.15
2022-10-17T18:01:02.744Z,8.65
2022-10-17T18:03:29.518Z,7.70
2022-10-17T18:05:56.292Z,8.75
2022-10-17T18:08:23.328Z,8.07
2022-10-17T18:10:51.267Z,8.60
2022-10-17T18:13:18.175Z,8.18
2022-10-17T18:15:44.950Z,8.98
2022-10-17T18:18:11.680Z,9.70
2022-10-17T18:20:42.507Z,9.38
2022-10-17T18:23:10.135Z,8.85
2022-10-17T18:25:37.166Z,8.85
2022-10-17T18:28:04.214Z,9.73
2022-10-17T18:30:33.764Z,9.55
2022-10-17T18:33:01.184Z,9.47
2022-10-17T18:35:27.739Z,9.63
2022-10-17T18:37:56.741Z,9.30
2022-10-17T18:40:23.493Z,9.02
2022-10-17T18:42:50.860Z,8.68
2022-10-17T18:45:17.611Z,8.40
2022-10-17T18:47:47.242Z,9.15
2022-10-17T18:50:14.735Z,8.98
2022-10-17T18:52:41.549Z,8.77
2022-10-17T18:55:08.812Z,8.93
2022-10-17T18:57:35.491Z,8.55
2022-10-17T19:00:02.655Z,8.80
2022-10-17T19:02:32.140Z,9.05
2022-10-17T19:05:01.128Z,8.85
2022-10-17T19:07:28.173Z,8.25
2022-10-17T19:09:55.020Z,8.32
2022-10-17T19:12:21.936Z,9.32
2022-10-17T19:14:52.997Z,9.55
2022-10-17T19:17:19.815Z,10.35
2022-10-17T19:19:51.831Z,10.88
2022-10-17T19:22:18.655Z,9.52
2022-10-17T19:24:45.311Z,9.45
2022-10-17T19:27:12.159Z,10.50
2022-10-17T19:29:43.295Z,12.07
2022-10-17T19:32:15.618Z,11.43
2022-10-17T19:34:44.664Z,11.45
2022-10-17T19:37:11.182Z,13.25
2022-10-17T19:39:37.732Z,13.00
2022-10-17T19:42:06.796Z,13.07
2022-10-17T19:44:34.331Z,13.48
2022-10-17T19:47:00.900Z,13.38
2022-10-17T19:49:27.470Z,13.85
2022-10-17T19:51:53.927Z,13.52
2022-10-17T19:54:20.423Z,12.82
2022-10-17T19:56:47.005Z,13.15
2022-10-17T19:59:15.062Z,13.15
2022-10-17T20:01:41.950Z,13.73
2022-10-17T20:04:10.595Z,12.52
2022-10-17T20:06:37.572Z,11.57
2022-10-17T20:09:05.577Z,11.82
2022-10-17T20:11:32.189Z,12.25
2022-10-17T20:14:00.056Z,12.10
2022-10-17T20:16:29.035Z,11.82
2022-10-17T20:18:57.060Z,11.18
2022-10-17T20:21:27.251Z,11.55
2022-10-17T20:23:54.355Z,10.95
2022-10-17T20:26:37.650Z,10.93
2022-10-17T20:29:10.679Z,10.52
2022-10-17T20:31:37.826Z,9.95
2022-10-17T20:34:04.414Z,10.90
2022-10-17T20:36:30.905Z,10.52
2022-10-17T20:38:58.768Z,9.93
2022-10-17T20:41:26.481Z,9.93
2022-10-17T20:43:54.436Z,8.90
2022-10-17T20:46:35.516Z,9.50
2022-10-17T20:49:05.081Z,8.68
2022-10-17T20:51:31.698Z,8.60
2022-10-17T20:53:58.286Z,8.55
2022-10-17T20:56:27.484Z,7.38
2022-10-17T20:58:58.887Z,7.95
2022-10-17T21:01:26.592Z,7.18
2022-10-17T21:03:53.390Z,6.93
2022-10-17T21:06:20.481Z,6.43
2022-10-17T21:08:47.637Z,5.78
2022-10-17T21:11:16.752Z,6.32
2022-10-17T21:13:43.279Z,5.78
2022-10-17T21:16:12.438Z,5.80
2022-10-17T21:18:39.447Z,5.25
2022-10-17T21:21:26.987Z,5.25
2022-10-17T21:23:58.067Z,5.40
2022-10-17T21:26:24.695Z,5.10
2022-10-17T21:28:51.203Z,5.13
2022-10-17T21:31:22.837Z,5.20
2022-10-17T21:33:52.770Z,4.75
2022-10-17T21:36:20.346Z,5.22
2022-10-17T21:38:48.441Z,4.95
2022-10-17T21:41:16.850Z,5.22
2022-10-17T21:43:43.650Z,4.93
2022-10-17T21:46:13.775Z,5.50
2022-10-17T21:48:40.870Z,5.20
2022-10-17T21:51:13.599Z,5.80
2022-10-17T21:53:40.766Z,6.18
2022-10-17T21:56:10.708Z,6.05
2022-10-17T21:58:37.532Z,6.55
2022-10-17T22:01:11.332Z,6.53
2022-10-17T22:03:42.751Z,6.70
2022-10-17T22:09:01.648Z,6.30
2022-10-17T22:11:30.398Z,6.40
2022-10-17T22:13:59.337Z,6.85
2022-10-17T22:16:26.593Z,5.93
2022-10-17T22:18:56.321Z,6.25
2022-10-17T22:21:23.263Z,6.18
2022-10-17T22:24:04.956Z,6.63
2022-10-17T22:26:32.904Z,6.60
2022-10-17T22:28:59.589Z,6.47
2022-10-17T22:31:27.589Z,6.93
2022-10-17T22:33:54.298Z,6.70
2022-10-17T22:36:20.755Z,6.25
2022-10-17T22:38:47.329Z,6.25
2022-10-17T22:41:13.834Z,7.55
2022-10-17T22:43:40.369Z,6.90
2022-10-17T22:46:07.713Z,6.60
2022-10-17T22:48:34.265Z,6.47
2022-10-17T22:51:01.865Z,6.30
2022-10-17T22:53:29.650Z,6.80
2022-10-17T22:55:59.797Z,6.70
2022-10-17T22:58:27.607Z,7.30
2022-10-17T23:00:54.839Z,6.43
2022-10-17T23:03:22.668Z,6.80
2022-10-17T23:05:49.581Z,5.82
2022-10-17T23:08:17.921Z,5.85
2022-10-17T23:10:45.309Z,6.28
2022-10-17T23:13:12.221Z,6.68
2022-10-17T23:15:38.883Z,6.32
2022-10-17T23:18:05.880Z,6.07
2022-10-17T23:20:32.402Z,6.80
2022-10-17T23:22:59.285Z,6.40
2022-10-17T23:25:25.965Z,6.50
2022-10-17T23:27:52.417Z,6.95
2022-10-17T23:30:18.990Z,7.00
2022-10-17T23:32:45.842Z,7.50
2022-10-17T23:35:12.337Z,6.90
2022-10-17T23:37:38.893Z,7.10
2022-10-17T23:40:06.392Z,7.28
2022-10-17T23:42:48.327Z,8.95
2022-10-17T23:45:14.909Z,8.73
2022-10-17T23:47:41.422Z,8.75
2022-10-17T23:50:08.227Z,8.25
2022-10-17T23:52:34.742Z,7.43
2022-10-17T23:55:01.306Z,7.18
2022-10-17T23:57:28.040Z,7.75
2022-10-17T23:59:55.361Z,7.30
